Flight Track Log - Related Links

Times and Time Zones

All times are in EDT time to prevent confusion due to time zone crossing. See the TRS398 flight status page for this flight to view local times or setup timezone preferences in your user account.

Time Position Orientation Groundspeed Altitude Reporting Facility
EDT Latitude Longitude Course Direction KTS MPH feet Rate Location/Type
Tue 02:53:04 PM 28.4000 -81.3000 210° Southwest 180 207 500  Level Orlando TRACON
Tue 02:54:16 PM 28.3500 -81.3333 210° Southwest 230 265 2,600 1,652 Climbing Orlando TRACON
Tue 02:55:22 PM 28.3167 -81.4000 240° Southwest 287 330 4,300 1,810 Climbing Orlando TRACON
Tue 02:56:22 PM 28.3667 -81.4333 330° Northwest 272 313 6,400 1,810 Climbing Orlando TRACON
Tue 02:58:21 PM 28.5219 -81.4772 346° North 310 357 9,700 1,609 Climbing Jacksonville Center
Tue 02:59:21 PM 28.6078 -81.4997 347° North 310 357 11,200 1,550 Climbing Jacksonville Center
Tue 03:00:21 PM 28.6956 -81.5197 349° North 316 364 12,800 1,650 Climbing Jacksonville Center
Tue 03:01:21 PM 28.7919 -81.5422 348° North 327 376 14,500 1,700 Climbing Jacksonville Center
Tue 03:02:21 PM 28.8881 -81.5669 347° North 338 389 16,200 1,650 Climbing Jacksonville Center
Tue 03:03:21 PM 28.9886 -81.5894 349° North 350 403 17,800 1,650 Climbing Jacksonville Center
Tue 03:04:21 PM 29.0889 -81.6167 347° North 355 409 19,500 1,750 Climbing Jacksonville Center
Tue 03:05:21 PM 29.1914 -81.6389 349° North 367 422 21,300 1,700 Climbing Jacksonville Center
Tue 03:06:21 PM 29.3067 -81.6708 346° North 377 434 22,900 1,650 Climbing Jacksonville Center
Tue 03:07:21 PM 29.4153 -81.6981 348° North 382 440 24,600 1,450 Climbing Jacksonville Center
Tue 03:08:21 PM 29.5283 -81.7253 348° North 395 455 25,800 1,350 Climbing Jacksonville Center
Tue 03:09:21 PM 29.6414 -81.7550 347° North 406 467 27,300 1,240 Climbing Jacksonville Center
Tue 03:10:22 PM 29.7586 -81.7800 350° North 413 475 28,300 1,050 Climbing Jacksonville Center
Tue 03:11:21 PM 29.8756 -81.8100 347° North 418 481 29,400 1,059 Climbing Jacksonville Center
Tue 03:12:21 PM 29.9950 -81.8397 348° North 429 494 30,400 900 Climbing Jacksonville Center
Tue 03:13:21 PM 30.1183 -81.8672 349° North 436 502 31,200 850 Climbing Jacksonville Center
Tue 03:14:21 PM 30.2417 -81.8900 351° North 441 507 32,100 850 Climbing Jacksonville Center
Tue 03:15:21 PM 30.3611 -81.9369 341° North 446 513 32,900 450 Climbing Jacksonville Center
Tue 03:16:21 PM 30.4806 -81.9864 340° North 466 536 33,000 50 Climbing Jacksonville Center
Tue 03:17:21 PM 30.5914 -82.0383 338° Northwest 463 533 33,000  Level Jacksonville Center
Tue 03:18:21 PM 30.7044 -82.0881 339° North 451 519 33,000  Level Jacksonville Center
Tue 03:19:21 PM 30.8239 -82.1403 339° North 451 519 33,000  Level Jacksonville Center
Tue 03:20:22 PM 30.9369 -82.1903 339° North 451 519 33,000  Level Jacksonville Center
Tue 03:21:21 PM 31.0542 -82.2378 341° North 445 512 33,000  Level Jacksonville Center
Tue 03:22:21 PM 31.1692 -82.2906 339° North 445 512 33,000  Level Jacksonville Center
Tue 03:23:21 PM 31.2864 -82.3408 340° North 445 512 33,000  Level Jacksonville Center
Tue 03:24:21 PM 31.4014 -82.3864 341° North 445 512 33,000  Level Jacksonville Center
Tue 03:25:21 PM 31.5164 -82.4392 339° North 440 506 33,000  Level Jacksonville Center
Tue 03:27:32 PM 31.7711 -82.5511 340° North 465 535 33,000  Level Atlanta Center
Tue 03:28:32 PM 31.8864 -82.6006 340° North 450 518 33,000  Level Atlanta Center
Tue 03:29:32 PM 32.0039 -82.6525 339° North 450 518 33,000  Level Atlanta Center
Tue 03:30:32 PM 32.1214 -82.7047 339° North 450 518 33,000  Level Atlanta Center
Tue 03:31:32 PM 32.2389 -82.7569 339° North 450 518 33,000  Level Atlanta Center
Tue 03:32:32 PM 32.3519 -82.8094 339° North 450 518 33,000  Level Atlanta Center
Tue 03:33:32 PM 32.4672 -82.8597 340° North 450 518 33,000 500 Level Atlanta Center
Tue 03:34:32 PM 32.5783 -82.9122 338° Northwest 438 504 34,000 500 Climbing Atlanta Center
Tue 03:35:32 PM 32.6917 -82.9603 340° North 432 497 34,000  Level Atlanta Center
Tue 03:36:32 PM 32.8006 -83.0133 338° Northwest 426 490 34,000  Level Atlanta Center
Tue 03:37:32 PM 32.9117 -83.0614 340° North 420 483 34,000  Level Atlanta Center
Tue 03:38:32 PM 33.0206 -83.1122 339° North 420 483 34,000  Level Atlanta Center
Tue 03:39:32 PM 33.1483 -83.1681 340° North 425 489 34,000  Level Atlanta Center
Tue 03:40:32 PM 33.2572 -83.2189 339° North 431 496 34,000  Level Atlanta Center
Tue 03:41:32 PM 33.3722 -83.2678 340° North 431 496 34,000  Level Atlanta Center
Tue 03:42:32 PM 33.4894 -83.3214 339° North 436 502 34,000  Level Atlanta Center
Tue 03:43:32 PM 33.6025 -83.3753 338° Northwest 436 502 34,000  Level Atlanta Center
Tue 03:44:32 PM 33.7175 -83.4294 339° North 436 502 34,000  Level Atlanta Center
Tue 03:45:32 PM 33.8347 -83.4811 340° North 436 502 34,000  Level Atlanta Center
Tue 03:46:32 PM 33.9497 -83.5356 339° North 436 502 34,000  Level Atlanta Center
Tue 03:47:32 PM 34.0542 -83.5825 340° North 436 502 34,000  Level Atlanta Center
Tue 03:48:32 PM 34.1714 -83.6372 339° North 436 502 34,000  Level Atlanta Center
Tue 03:49:32 PM 34.2864 -83.6919 339° North 441 507 34,000  Level Atlanta Center
Tue 03:50:32 PM 34.4011 -83.7442 339° North 436 502 34,000  Level Atlanta Center
Tue 03:51:32 PM 34.5161 -83.8019 338° Northwest 436 502 34,000  Level Atlanta Center
Tue 03:52:32 PM 34.6289 -83.8544 339° North 428 493 34,000  Level Atlanta Center
Tue 03:53:32 PM 34.7500 -83.9125 339° North 428 493 34,000  Level Atlanta Center
Tue 03:54:32 PM 34.8650 -83.9678 338° Northwest 434 499 34,000  Level Atlanta Center
Tue 03:55:32 PM 34.9775 -84.0211 339° North 434 499 34,000  Level Atlanta Center
Tue 03:56:32 PM 35.0922 -84.0769 338° Northwest 434 499 34,000  Level Atlanta Center
Tue 03:57:32 PM 35.2069 -84.1303 339° North 434 499 34,000  Level Atlanta Center
Tue 03:58:32 PM 35.3197 -84.1839 339° North 434 499 34,000  Level Atlanta Center
Tue 03:59:32 PM 35.4322 -84.2400 338° Northwest 434 499 34,000  Level Atlanta Center
Tue 04:00:32 PM 35.5447 -84.2939 339° North 434 499 34,000  Level Atlanta Center
Tue 04:01:32 PM 35.6617 -84.3481 339° North 434 499 34,000  Level Atlanta Center
Tue 04:02:32 PM 35.7761 -84.4047 338° Northwest 434 499 34,000  Level Atlanta Center
Tue 04:03:32 PM 35.8908 -84.4592 339° North 434 499 34,000  Level Atlanta Center
Tue 04:05:09 PM 36.0661 -84.5461 338° Northwest 442 509 34,000  Level Indianapolis Center
Tue 04:06:12 PM 36.1789 -84.6017 338° Northwest 442 509 34,000  Level Indianapolis Center
Tue 04:07:13 PM 36.3139 -84.6686 338° Northwest 438 504 34,000  Level Indianapolis Center
Tue 04:08:15 PM 36.4267 -84.7247 338° Northwest 438 504 34,000  Level Indianapolis Center
Tue 04:09:17 PM 36.5378 -84.7808 338° Northwest 434 499 34,000  Level Indianapolis Center
Tue 04:10:19 PM 36.6500 -84.8361 338° Northwest 436 502 34,000  Level Indianapolis Center
Tue 04:11:21 PM 36.7619 -84.8919 338° Northwest 434 499 34,000  Level Indianapolis Center
Tue 04:12:23 PM 36.8744 -84.9494 338° Northwest 434 499 34,000  Level Indianapolis Center
Tue 04:13:25 PM 37.0083 -85.0158 338° Northwest 430 495 34,000  Level Indianapolis Center
Tue 04:14:27 PM 37.1158 -85.0703 338° Northwest 434 499 34,000  Level Indianapolis Center
Tue 04:15:29 PM 37.2292 -85.1275 338° Northwest 437 503 34,000  Level Indianapolis Center
Tue 04:16:32 PM 37.3433 -85.1856 338° Northwest 441 507 34,000  Level Indianapolis Center
Tue 04:17:34 PM 37.4742 -85.2514 338° Northwest 434 499 34,000  Level Indianapolis Center
Tue 04:18:36 PM 37.5867 -85.3103 337° Northwest 436 502 34,000  Level Indianapolis Center
Tue 04:19:38 PM 37.6969 -85.3686 337° Northwest 430 495 34,000  Level Indianapolis Center
Tue 04:20:40 PM 37.8092 -85.4250 338° Northwest 431 496 34,000  Level Indianapolis Center
Tue 04:21:42 PM 37.9311 -85.4989 334° Northwest 440 506 34,000  Level Indianapolis Center
Tue 04:22:44 PM 38.0314 -85.5800 328° Northwest 431 496 34,000  Level Indianapolis Center
Tue 04:23:46 PM 38.1367 -85.6606 329° Northwest 438 504 34,000  Level Indianapolis Center
Tue 04:24:48 PM 38.2411 -85.7411 329° Northwest 440 506 34,000  Level Indianapolis Center
Tue 04:25:50 PM 38.3508 -85.8133 333° Northwest 444 511 34,000  Level Indianapolis Center
Tue 04:26:52 PM 38.4664 -85.8772 337° Northwest 452 520 34,000  Level Indianapolis Center
Tue 04:27:54 PM 38.5819 -85.9422 336° Northwest 453 521 34,000  Level Indianapolis Center
Tue 04:28:56 PM 38.7206 -86.0194 337° Northwest 454 522 34,000  Level Indianapolis Center
Tue 04:29:58 PM 38.8356 -86.0822 337° Northwest 450 518 34,000  Level Indianapolis Center
Tue 04:31:00 PM 38.9553 -86.1497 336° Northwest 446 513 34,000  Level Indianapolis Center
Tue 04:32:02 PM 39.0681 -86.2125 337° Northwest 441 507 34,000  Level Indianapolis Center
Tue 04:33:04 PM 39.1819 -86.2772 336° Northwest 444 511 34,000  Level Indianapolis Center
Tue 04:34:06 PM 39.2950 -86.3411 336° Northwest 442 509 34,000  Level Indianapolis Center
Tue 04:35:08 PM 39.4089 -86.4053 336° Northwest 444 511 34,000  Level Indianapolis Center
Tue 04:36:10 PM 39.5219 -86.4700 336° Northwest 443 510 34,000  Level Indianapolis Center
Tue 04:37:12 PM 39.6353 -86.5367 336° Northwest 441 507 34,000  Level Indianapolis Center
Tue 04:38:14 PM 39.7719 -86.6144 336° Northwest 440 506 34,000  Level Indianapolis Center
Tue 04:39:16 PM 39.8867 -86.6792 337° Northwest 443 510 34,000  Level Indianapolis Center
Tue 04:40:18 PM 39.9997 -86.7439 336° Northwest 443 510 34,000  Level Indianapolis Center
Tue 04:41:20 PM 40.1161 -86.8053 338° Northwest 450 518 34,000  Level Indianapolis Center
Tue 04:41:55 PM 40.1894 -86.8297 346° North 452 520 34,000  Level Chicago Center
Tue 04:42:57 PM 40.3108 -86.8750 344° North 452 520 34,000  Level Chicago Center
Tue 04:43:59 PM 40.4300 -86.9192 344° North 445 512 34,000  Level Chicago Center
Tue 04:45:01 PM 40.5497 -86.9622 345° North 447 514 34,000  Level Chicago Center
Tue 04:46:03 PM 40.6697 -87.0061 344° North 448 516 34,000 -480 Level Chicago Center
Tue 04:47:06 PM 40.7975 -87.0533 344° North 452 520 33,000 -480 Descending Chicago Center
Tue 04:48:08 PM 40.9444 -87.1075 344° North 460 529 33,000  Level Chicago Center
Tue 04:49:10 PM 41.0661 -87.1517 345° North 460 529 33,000  Level Chicago Center
Tue 04:50:12 PM 41.1931 -87.1664 355° North 463 533 33,000 -629 Level Chicago Center
Tue 04:51:14 PM 41.3194 -87.1808 355° North 461 531 31,700 -2,226 Descending Chicago Center
Tue 04:52:16 PM 41.4706 -87.2000 355° North 460 529 28,400 -2,661 Descending Chicago Center
Tue 04:53:18 PM 41.5892 -87.2136 355° North 438 504 26,200 -2,081 Descending Chicago Center
Tue 04:54:20 PM 41.7014 -87.2283 354° North 416 479 24,100 -1,065 Descending Chicago Center
Tue 04:55:22 PM 41.8117 -87.2406 355° North 405 466 24,000 -774 Descending Chicago Center
Tue 04:56:24 PM 41.9222 -87.2558 354° North 404 465 22,500 -1,984 Descending Chicago Center
Tue 04:57:26 PM 42.0483 -87.2703 355° North 390 449 19,900 -1,742 Descending Chicago Center
Tue 04:58:28 PM 42.1478 -87.2811 355° North 369 425 18,900 -1,008 Descending Chicago Center
Tue 04:59:31 PM 42.2467 -87.2925 355° North 362 417 17,800 -1,008 Descending Chicago Center
Tue 05:00:33 PM 42.3431 -87.3056 354° North 355 409 16,800 -919 Descending Chicago Center
Tue 05:01:35 PM 42.4414 -87.2942 North 363 418 15,900 -1,500 Descending Chicago Center
Tue 05:02:37 PM 42.5492 -87.2942 360° North 334 384 13,700 -2,419 Descending Chicago Center
Tue 05:03:39 PM 42.6206 -87.3617 325° Northwest 313 360 10,900 -1,839 Descending Chicago Center
Tue 05:04:41 PM 42.6919 -87.4308 325° Northwest 308 354 9,900 -435 Descending Chicago Center
Tue 05:05:43 PM 42.7653 -87.4789 334° Northwest 293 337 10,000 -145 Climbing Chicago Center
Tue 05:06:45 PM 42.8417 -87.5264 335° Northwest 300 345 9,600 -1,452 Descending Chicago Center
Tue 05:07:47 PM 42.9161 -87.5742 335° Northwest 297 342 7,000 -2,661 Descending Chicago Center
Tue 05:08:49 PM 42.9811 -87.6450 321° Northwest 279 321 4,100 -2,032 Descending Chicago Center
Tue 05:09:51 PM 42.9844 -87.7272 273° West 231 266 2,800 -864 Descending Chicago Center
Tue 05:10:54 PM 42.9714 -87.7806 252° West 174 200 2,300 -576 Descending Chicago Center
Tue 05:11:56 PM 42.9594 -87.8294 252° West 150 173 1,600 -532 Descending Chicago Center
Tue 05:12:58 PM 42.9483 -87.8775 252° West 140 161 1,200 -387 Descending Chicago Center
Tue 05:15:00 PM 42.9333 -87.8833 260° West  Level FlightAware Approximate

Login

Don't have an account? Register now (free) for customized features, flight alerts, and more!